sensor_id;sensor_type;location;lat;lon;timestamp;P1;durP1;ratioP1;P2;durP2;ratioP2
41309;SDS011;27057;51.438;-0.010;2023-07-02T00:00:13;72.43;;;22.95;;
41309;SDS011;27057;51.438;-0.010;2023-07-02T00:02:40;66.78;;;22.08;;
41309;SDS011;27057;51.438;-0.010;2023-07-02T00:05:08;66.30;;;23.10;;
41309;SDS011;27057;51.438;-0.010;2023-07-02T00:07:36;64.40;;;21.20;;
41309;SDS011;27057;51.438;-0.010;2023-07-02T00:10:04;73.30;;;22.67;;
41309;SDS011;27057;51.438;-0.010;2023-07-02T00:12:32;62.25;;;21.50;;
41309;SDS011;27057;51.438;-0.010;2023-07-02T00:15:00;66.63;;;19.65;;
41309;SDS011;27057;51.438;-0.010;2023-07-02T00:17:30;77.93;;;23.48;;
41309;SDS011;27057;51.438;-0.010;2023-07-02T00:19:58;66.38;;;21.58;;
41309;SDS011;27057;51.438;-0.010;2023-07-02T00:22:43;65.25;;;20.40;;
41309;SDS011;27057;51.438;-0.010;2023-07-02T00:25:13;52.33;;;19.17;;
41309;SDS011;27057;51.438;-0.010;2023-07-02T00:27:41;58.90;;;20.92;;
41309;SDS011;27057;51.438;-0.010;2023-07-02T00:30:09;72.35;;;21.95;;
41309;SDS011;27057;51.438;-0.010;2023-07-02T00:32:40;79.05;;;20.50;;
41309;SDS011;27057;51.438;-0.010;2023-07-02T00:35:08;78.55;;;19.83;;
41309;SDS011;27057;51.438;-0.010;2023-07-02T00:37:35;71.43;;;20.38;;
41309;SDS011;27057;51.438;-0.010;2023-07-02T00:40:04;69.85;;;20.73;;
41309;SDS011;27057;51.438;-0.010;2023-07-02T00:42:36;64.80;;;20.52;;
41309;SDS011;27057;51.438;-0.010;2023-07-02T00:45:03;65.22;;;18.73;;
41309;SDS011;27057;51.438;-0.010;2023-07-02T00:47:35;60.38;;;20.27;;
41309;SDS011;27057;51.438;-0.010;2023-07-02T00:50:03;78.72;;;20.95;;
41309;SDS011;27057;51.438;-0.010;2023-07-02T00:52:32;67.28;;;20.15;;
41309;SDS011;27057;51.438;-0.010;2023-07-02T00:55:00;62.40;;;19.40;;
41309;SDS011;27057;51.438;-0.010;2023-07-02T00:57:28;56.60;;;19.35;;
41309;SDS011;27057;51.438;-0.010;2023-07-02T00:59:57;59.92;;;19.58;;
41309;SDS011;27057;51.438;-0.010;2023-07-02T01:02:28;66.35;;;18.77;;
41309;SDS011;27057;51.438;-0.010;2023-07-02T01:04:57;66.53;;;19.42;;
41309;SDS011;27057;51.438;-0.010;2023-07-02T01:07:28;65.20;;;17.05;;
41309;SDS011;27057;51.438;-0.010;2023-07-02T01:09:55;60.75;;;19.45;;
41309;SDS011;27057;51.438;-0.010;2023-07-02T01:12:23;88.00;;;21.48;;
41309;SDS011;27057;51.438;-0.010;2023-07-02T01:14:51;52.65;;;19.75;;
41309;SDS011;27057;51.438;-0.010;2023-07-02T01:17:21;65.68;;;19.35;;
41309;SDS011;27057;51.438;-0.010;2023-07-02T01:19:52;61.05;;;19.15;;
41309;SDS011;27057;51.438;-0.010;2023-07-02T01:22:27;66.65;;;18.30;;
41309;SDS011;27057;51.438;-0.010;2023-07-02T01:24:58;70.50;;;20.60;;
41309;SDS011;27057;51.438;-0.010;2023-07-02T01:27:29;76.03;;;19.77;;
41309;SDS011;27057;51.438;-0.010;2023-07-02T01:29:57;63.17;;;19.58;;
41309;SDS011;27057;51.438;-0.010;2023-07-02T01:32:25;69.38;;;20.73;;
41309;SDS011;27057;51.438;-0.010;2023-07-02T01:35:01;62.67;;;19.45;;
41309;SDS011;27057;51.438;-0.010;2023-07-02T01:37:29;89.50;;;19.35;;
41309;SDS011;27057;51.438;-0.010;2023-07-02T01:40:06;71.03;;;20.20;;
41309;SDS011;27057;51.438;-0.010;2023-07-02T01:42:35;58.92;;;19.23;;
41309;SDS011;27057;51.438;-0.010;2023-07-02T01:45:11;74.72;;;18.50;;
41309;SDS011;27057;51.438;-0.010;2023-07-02T01:47:38;63.45;;;18.90;;
41309;SDS011;27057;51.438;-0.010;2023-07-02T01:50:20;69.00;;;18.90;;
41309;SDS011;27057;51.438;-0.010;2023-07-02T01:52:48;82.63;;;20.02;;
41309;SDS011;27057;51.438;-0.010;2023-07-02T01:55:16;72.93;;;19.48;;
41309;SDS011;27057;51.438;-0.010;2023-07-02T01:57:48;61.05;;;17.92;;
41309;SDS011;27057;51.438;-0.010;2023-07-02T02:00:16;62.97;;;17.02;;
41309;SDS011;27057;51.438;-0.010;2023-07-02T02:02:44;59.60;;;17.50;;
41309;SDS011;27057;51.438;-0.010;2023-07-02T02:05:12;64.68;;;18.25;;
41309;SDS011;27057;51.438;-0.010;2023-07-02T02:07:39;59.03;;;17.17;;
41309;SDS011;27057;51.438;-0.010;2023-07-02T02:10:10;56.58;;;17.30;;
41309;SDS011;27057;51.438;-0.010;2023-07-02T02:12:38;56.10;;;17.40;;
41309;SDS011;27057;51.438;-0.010;2023-07-02T02:15:06;63.05;;;19.15;;
41309;SDS011;27057;51.438;-0.010;2023-07-02T02:17:34;74.80;;;19.88;;
41309;SDS011;27057;51.438;-0.010;2023-07-02T02:20:07;61.35;;;18.73;;
41309;SDS011;27057;51.438;-0.010;2023-07-02T02:22:38;61.40;;;17.30;;
41309;SDS011;27057;51.438;-0.010;2023-07-02T02:25:09;71.90;;;19.00;;
41309;SDS011;27057;51.438;-0.010;2023-07-02T02:27:38;67.38;;;17.65;;
41309;SDS011;27057;51.438;-0.010;2023-07-02T02:30:10;68.85;;;17.90;;
41309;SDS011;27057;51.438;-0.010;2023-07-02T02:32:48;69.60;;;18.95;;
41309;SDS011;27057;51.438;-0.010;2023-07-02T02:35:21;80.53;;;18.42;;
41309;SDS011;27057;51.438;-0.010;2023-07-02T02:38:19;57.05;;;18.65;;
41309;SDS011;27057;51.438;-0.010;2023-07-02T02:41:25;66.38;;;20.23;;
41309;SDS011;27057;51.438;-0.010;2023-07-02T02:43:53;67.43;;;18.42;;
41309;SDS011;27057;51.438;-0.010;2023-07-02T02:46:22;72.18;;;18.23;;
41309;SDS011;27057;51.438;-0.010;2023-07-02T02:49:37;60.40;;;17.02;;
41309;SDS011;27057;51.438;-0.010;2023-07-02T02:52:15;62.67;;;19.50;;
41309;SDS011;27057;51.438;-0.010;2023-07-02T02:54:46;52.67;;;19.08;;
41309;SDS011;27057;51.438;-0.010;2023-07-02T02:57:14;53.92;;;17.70;;
41309;SDS011;27057;51.438;-0.010;2023-07-02T02:59:48;61.92;;;18.63;;
41309;SDS011;27057;51.438;-0.010;2023-07-02T03:02:16;63.38;;;17.38;;
41309;SDS011;27057;51.438;-0.010;2023-07-02T03:04:44;72.18;;;17.38;;
41309;SDS011;27057;51.438;-0.010;2023-07-02T03:07:28;56.22;;;18.48;;
41309;SDS011;27057;51.438;-0.010;2023-07-02T03:10:16;63.10;;;17.60;;
41309;SDS011;27057;51.438;-0.010;2023-07-02T03:13:21;66.45;;;17.58;;
41309;SDS011;27057;51.438;-0.010;2023-07-02T03:15:48;73.72;;;16.10;;
41309;SDS011;27057;51.438;-0.010;2023-07-02T03:18:23;63.65;;;17.50;;
41309;SDS011;27057;51.438;-0.010;2023-07-02T03:20:51;68.85;;;17.08;;
41309;SDS011;27057;51.438;-0.010;2023-07-02T03:23:18;57.05;;;17.00;;
41309;SDS011;27057;51.438;-0.010;2023-07-02T03:25:46;73.05;;;17.58;;
41309;SDS011;27057;51.438;-0.010;2023-07-02T03:28:14;57.45;;;16.98;;
41309;SDS011;27057;51.438;-0.010;2023-07-02T03:33:48;57.75;;;17.75;;
41309;SDS011;27057;51.438;-0.010;2023-07-02T03:36:34;61.15;;;15.68;;
41309;SDS011;27057;51.438;-0.010;2023-07-02T03:39:03;64.03;;;16.50;;
41309;SDS011;27057;51.438;-0.010;2023-07-02T03:41:37;58.97;;;17.08;;
41309;SDS011;27057;51.438;-0.010;2023-07-02T03:44:04;62.40;;;16.48;;
41309;SDS011;27057;51.438;-0.010;2023-07-02T03:46:34;50.63;;;16.30;;
41309;SDS011;27057;51.438;-0.010;2023-07-02T03:49:53;61.95;;;17.42;;
41309;SDS011;27057;51.438;-0.010;2023-07-02T03:52:44;58.50;;;16.38;;
41309;SDS011;27057;51.438;-0.010;2023-07-02T03:55:19;60.22;;;16.27;;
41309;SDS011;27057;51.438;-0.010;2023-07-02T03:57:55;64.47;;;15.98;;
41309;SDS011;27057;51.438;-0.010;2023-07-02T04:00:22;61.92;;;16.80;;
41309;SDS011;27057;51.438;-0.010;2023-07-02T04:02:59;53.30;;;14.85;;
41309;SDS011;27057;51.438;-0.010;2023-07-02T04:05:31;71.18;;;18.35;;
41309;SDS011;27057;51.438;-0.010;2023-07-02T04:07:58;58.70;;;15.32;;
41309;SDS011;27057;51.438;-0.010;2023-07-02T04:11:00;73.93;;;17.27;;
41309;SDS011;27057;51.438;-0.010;2023-07-02T04:13:28;50.55;;;14.57;;
41309;SDS011;27057;51.438;-0.010;2023-07-02T04:16:02;62.83;;;15.43;;
41309;SDS011;27057;51.438;-0.010;2023-07-02T04:18:33;57.70;;;14.25;;
41309;SDS011;27057;51.438;-0.010;2023-07-02T04:21:02;58.45;;;14.13;;
41309;SDS011;27057;51.438;-0.010;2023-07-02T04:23:42;54.28;;;15.52;;
41309;SDS011;27057;51.438;-0.010;2023-07-02T04:26:20;59.08;;;15.68;;
41309;SDS011;27057;51.438;-0.010;2023-07-02T04:29:14;69.65;;;14.98;;
41309;SDS011;27057;51.438;-0.010;2023-07-02T04:31:43;61.35;;;15.55;;
41309;SDS011;27057;51.438;-0.010;2023-07-02T04:34:18;63.20;;;16.42;;
41309;SDS011;27057;51.438;-0.010;2023-07-02T04:37:06;43.95;;;15.27;;
41309;SDS011;27057;51.438;-0.010;2023-07-02T04:39:47;52.72;;;16.08;;
41309;SDS011;27057;51.438;-0.010;2023-07-02T04:42:24;59.95;;;18.30;;
41309;SDS011;27057;51.438;-0.010;2023-07-02T04:45:35;55.25;;;15.02;;
41309;SDS011;27057;51.438;-0.010;2023-07-02T04:48:04;48.60;;;13.63;;
41309;SDS011;27057;51.438;-0.010;2023-07-02T04:50:32;59.50;;;15.90;;
41309;SDS011;27057;51.438;-0.010;2023-07-02T04:53:21;75.28;;;15.38;;
41309;SDS011;27057;51.438;-0.010;2023-07-02T04:55:49;61.67;;;13.82;;
41309;SDS011;27057;51.438;-0.010;2023-07-02T04:58:20;66.43;;;17.17;;
41309;SDS011;27057;51.438;-0.010;2023-07-02T05:00:48;54.35;;;14.93;;
41309;SDS011;27057;51.438;-0.010;2023-07-02T05:03:23;57.55;;;17.63;;
41309;SDS011;27057;51.438;-0.010;2023-07-02T05:05:58;49.63;;;14.25;;
41309;SDS011;27057;51.438;-0.010;2023-07-02T05:08:35;68.43;;;13.73;;
41309;SDS011;27057;51.438;-0.010;2023-07-02T05:11:09;56.72;;;14.60;;
41309;SDS011;27057;51.438;-0.010;2023-07-02T05:13:49;50.13;;;14.05;;
41309;SDS011;27057;51.438;-0.010;2023-07-02T05:16:17;60.60;;;14.20;;
41309;SDS011;27057;51.438;-0.010;2023-07-02T05:19:24;52.42;;;13.85;;
41309;SDS011;27057;51.438;-0.010;2023-07-02T05:21:52;50.20;;;13.85;;
41309;SDS011;27057;51.438;-0.010;2023-07-02T05:24:19;55.53;;;14.30;;
41309;SDS011;27057;51.438;-0.010;2023-07-02T05:26:47;60.60;;;15.48;;
41309;SDS011;27057;51.438;-0.010;2023-07-02T05:29:17;61.33;;;14.25;;
41309;SDS011;27057;51.438;-0.010;2023-07-02T05:31:46;47.20;;;12.55;;
41309;SDS011;27057;51.438;-0.010;2023-07-02T05:34:14;51.83;;;13.18;;
41309;SDS011;27057;51.438;-0.010;2023-07-02T05:36:42;59.95;;;16.30;;
41309;SDS011;27057;51.438;-0.010;2023-07-02T05:39:10;55.75;;;15.50;;
41309;SDS011;27057;51.438;-0.010;2023-07-02T05:41:37;48.75;;;12.80;;
41309;SDS011;27057;51.438;-0.010;2023-07-02T05:44:29;48.45;;;13.38;;
41309;SDS011;27057;51.438;-0.010;2023-07-02T05:47:41;53.03;;;13.70;;
41309;SDS011;27057;51.438;-0.010;2023-07-02T05:50:08;46.03;;;13.07;;
41309;SDS011;27057;51.438;-0.010;2023-07-02T05:53:22;51.78;;;13.25;;
41309;SDS011;27057;51.438;-0.010;2023-07-02T05:55:54;44.58;;;13.10;;
41309;SDS011;27057;51.438;-0.010;2023-07-02T05:58:48;46.13;;;12.32;;
41309;SDS011;27057;51.438;-0.010;2023-07-02T06:01:16;50.67;;;13.60;;
41309;SDS011;27057;51.438;-0.010;2023-07-02T06:03:48;40.45;;;10.55;;
41309;SDS011;27057;51.438;-0.010;2023-07-02T06:06:23;44.87;;;11.03;;
41309;SDS011;27057;51.438;-0.010;2023-07-02T06:09:08;50.72;;;10.73;;
41309;SDS011;27057;51.438;-0.010;2023-07-02T06:11:44;54.13;;;12.25;;
41309;SDS011;27057;51.438;-0.010;2023-07-02T06:14:44;45.72;;;11.02;;
41309;SDS011;27057;51.438;-0.010;2023-07-02T06:17:15;37.50;;;10.90;;
41309;SDS011;27057;51.438;-0.010;2023-07-02T06:19:43;47.95;;;12.00;;
41309;SDS011;27057;51.438;-0.010;2023-07-02T06:22:16;42.55;;;12.65;;
41309;SDS011;27057;51.438;-0.010;2023-07-02T06:24:56;51.45;;;11.32;;
41309;SDS011;27057;51.438;-0.010;2023-07-02T06:27:54;46.38;;;11.73;;
41309;SDS011;27057;51.438;-0.010;2023-07-02T06:30:25;42.45;;;9.25;;
41309;SDS011;27057;51.438;-0.010;2023-07-02T06:32:53;36.60;;;10.90;;
41309;SDS011;27057;51.438;-0.010;2023-07-02T06:35:28;50.40;;;11.65;;
41309;SDS011;27057;51.438;-0.010;2023-07-02T06:38:27;39.50;;;10.23;;
41309;SDS011;27057;51.438;-0.010;2023-07-02T06:41:07;36.97;;;10.63;;
41309;SDS011;27057;51.438;-0.010;2023-07-02T06:43:34;33.03;;;9.20;;
41309;SDS011;27057;51.438;-0.010;2023-07-02T06:46:02;34.10;;;11.32;;
41309;SDS011;27057;51.438;-0.010;2023-07-02T06:48:35;39.75;;;10.55;;
41309;SDS011;27057;51.438;-0.010;2023-07-02T06:51:03;34.30;;;8.32;;
41309;SDS011;27057;51.438;-0.010;2023-07-02T06:53:37;35.20;;;8.85;;
41309;SDS011;27057;51.438;-0.010;2023-07-02T06:56:05;31.52;;;9.85;;
41309;SDS011;27057;51.438;-0.010;2023-07-02T06:58:36;39.72;;;9.60;;
41309;SDS011;27057;51.438;-0.010;2023-07-02T07:01:04;40.97;;;10.02;;
41309;SDS011;27057;51.438;-0.010;2023-07-02T07:03:32;23.45;;;6.85;;
41309;SDS011;27057;51.438;-0.010;2023-07-02T07:06:00;28.17;;;6.50;;
41309;SDS011;27057;51.438;-0.010;2023-07-02T07:08:27;35.63;;;8.52;;
41309;SDS011;27057;51.438;-0.010;2023-07-02T07:10:55;36.38;;;8.23;;
41309;SDS011;27057;51.438;-0.010;2023-07-02T07:13:23;26.30;;;8.35;;
41309;SDS011;27057;51.438;-0.010;2023-07-02T07:15:50;25.60;;;8.30;;
41309;SDS011;27057;51.438;-0.010;2023-07-02T07:18:18;26.60;;;8.52;;
41309;SDS011;27057;51.438;-0.010;2023-07-02T07:20:46;37.03;;;8.57;;
41309;SDS011;27057;51.438;-0.010;2023-07-02T07:23:15;25.08;;;7.90;;
41309;SDS011;27057;51.438;-0.010;2023-07-02T07:25:44;33.50;;;8.35;;
41309;SDS011;27057;51.438;-0.010;2023-07-02T07:28:12;28.73;;;9.05;;
41309;SDS011;27057;51.438;-0.010;2023-07-02T07:30:43;30.35;;;8.52;;
41309;SDS011;27057;51.438;-0.010;2023-07-02T07:33:14;43.97;;;8.82;;
41309;SDS011;27057;51.438;-0.010;2023-07-02T07:35:42;32.33;;;7.55;;
41309;SDS011;27057;51.438;-0.010;2023-07-02T07:38:10;26.27;;;6.05;;
41309;SDS011;27057;51.438;-0.010;2023-07-02T07:40:39;24.70;;;5.25;;
41309;SDS011;27057;51.438;-0.010;2023-07-02T07:43:07;31.25;;;6.93;;
41309;SDS011;27057;51.438;-0.010;2023-07-02T07:45:34;23.13;;;6.90;;
41309;SDS011;27057;51.438;-0.010;2023-07-02T07:48:02;29.30;;;8.55;;
41309;SDS011;27057;51.438;-0.010;2023-07-02T07:50:30;26.77;;;6.05;;
41309;SDS011;27057;51.438;-0.010;2023-07-02T07:52:58;33.08;;;6.70;;
41309;SDS011;27057;51.438;-0.010;2023-07-02T07:55:26;23.15;;;7.22;;
41309;SDS011;27057;51.438;-0.010;2023-07-02T07:57:54;33.10;;;8.73;;
41309;SDS011;27057;51.438;-0.010;2023-07-02T08:00:21;19.67;;;6.65;;
41309;SDS011;27057;51.438;-0.010;2023-07-02T08:02:51;16.90;;;5.85;;
41309;SDS011;27057;51.438;-0.010;2023-07-02T08:05:22;38.35;;;12.40;;
41309;SDS011;27057;51.438;-0.010;2023-07-02T08:07:50;37.88;;;8.25;;
41309;SDS011;27057;51.438;-0.010;2023-07-02T08:10:17;28.13;;;6.85;;
41309;SDS011;27057;51.438;-0.010;2023-07-02T08:12:45;21.55;;;5.57;;
41309;SDS011;27057;51.438;-0.010;2023-07-02T08:15:18;22.20;;;6.50;;
41309;SDS011;27057;51.438;-0.010;2023-07-02T08:17:46;23.48;;;7.20;;
41309;SDS011;27057;51.438;-0.010;2023-07-02T08:20:14;19.95;;;6.13;;
41309;SDS011;27057;51.438;-0.010;2023-07-02T08:22:44;23.20;;;8.18;;
41309;SDS011;27057;51.438;-0.010;2023-07-02T08:25:11;24.25;;;5.45;;
41309;SDS011;27057;51.438;-0.010;2023-07-02T08:27:39;11.27;;;4.18;;
41309;SDS011;27057;51.438;-0.010;2023-07-02T08:30:06;22.65;;;5.15;;
41309;SDS011;27057;51.438;-0.010;2023-07-02T08:32:34;25.88;;;7.00;;
41309;SDS011;27057;51.438;-0.010;2023-07-02T08:35:02;17.58;;;4.28;;
41309;SDS011;27057;51.438;-0.010;2023-07-02T08:37:30;22.33;;;5.47;;
41309;SDS011;27057;51.438;-0.010;2023-07-02T08:39:57;23.42;;;6.53;;
41309;SDS011;27057;51.438;-0.010;2023-07-02T08:42:25;24.10;;;7.13;;
41309;SDS011;27057;51.438;-0.010;2023-07-02T08:44:56;16.60;;;6.25;;
41309;SDS011;27057;51.438;-0.010;2023-07-02T08:47:34;11.77;;;5.80;;
41309;SDS011;27057;51.438;-0.010;2023-07-02T08:50:02;25.55;;;7.75;;
41309;SDS011;27057;51.438;-0.010;2023-07-02T08:52:31;19.17;;;6.80;;
41309;SDS011;27057;51.438;-0.010;2023-07-02T08:54:59;22.90;;;6.40;;
41309;SDS011;27057;51.438;-0.010;2023-07-02T08:57:26;30.25;;;6.10;;
41309;SDS011;27057;51.438;-0.010;2023-07-02T08:59:54;19.13;;;5.30;;
41309;SDS011;27057;51.438;-0.010;2023-07-02T09:02:33;10.30;;;3.42;;
41309;SDS011;27057;51.438;-0.010;2023-07-02T09:05:02;17.63;;;5.35;;
41309;SDS011;27057;51.438;-0.010;2023-07-02T09:07:30;21.27;;;4.90;;
41309;SDS011;27057;51.438;-0.010;2023-07-02T09:09:58;13.77;;;4.82;;
41309;SDS011;27057;51.438;-0.010;2023-07-02T09:12:26;23.05;;;6.97;;
41309;SDS011;27057;51.438;-0.010;2023-07-02T09:14:59;15.38;;;5.47;;
41309;SDS011;27057;51.438;-0.010;2023-07-02T09:17:30;14.68;;;4.03;;
41309;SDS011;27057;51.438;-0.010;2023-07-02T09:20:05;18.38;;;5.55;;
41309;SDS011;27057;51.438;-0.010;2023-07-02T09:22:37;12.85;;;4.63;;
41309;SDS011;27057;51.438;-0.010;2023-07-02T09:25:05;16.35;;;5.15;;
41309;SDS011;27057;51.438;-0.010;2023-07-02T09:27:37;22.98;;;6.50;;
41309;SDS011;27057;51.438;-0.010;2023-07-02T09:30:12;21.42;;;4.35;;
41309;SDS011;27057;51.438;-0.010;2023-07-02T09:32:45;19.77;;;5.33;;
41309;SDS011;27057;51.438;-0.010;2023-07-02T09:35:13;28.17;;;6.35;;
41309;SDS011;27057;51.438;-0.010;2023-07-02T09:37:42;22.13;;;8.23;;
41309;SDS011;27057;51.438;-0.010;2023-07-02T09:40:10;20.50;;;4.82;;
41309;SDS011;27057;51.438;-0.010;2023-07-02T09:42:38;15.00;;;4.55;;
41309;SDS011;27057;51.438;-0.010;2023-07-02T09:45:07;15.48;;;4.40;;
41309;SDS011;27057;51.438;-0.010;2023-07-02T09:47:39;19.38;;;5.80;;
41309;SDS011;27057;51.438;-0.010;2023-07-02T09:50:14;14.73;;;5.40;;
41309;SDS011;27057;51.438;-0.010;2023-07-02T09:52:45;15.90;;;5.55;;
41309;SDS011;27057;51.438;-0.010;2023-07-02T09:55:14;17.60;;;5.28;;
41309;SDS011;27057;51.438;-0.010;2023-07-02T09:57:43;45.67;;;16.85;;
41309;SDS011;27057;51.438;-0.010;2023-07-02T10:00:10;23.52;;;8.07;;
41309;SDS011;27057;51.438;-0.010;2023-07-02T10:02:39;8.98;;;3.80;;
41309;SDS011;27057;51.438;-0.010;2023-07-02T10:05:07;18.15;;;5.78;;
41309;SDS011;27057;51.438;-0.010;2023-07-02T10:07:35;14.18;;;5.43;;
41309;SDS011;27057;51.438;-0.010;2023-07-02T10:10:03;24.40;;;4.05;;
41309;SDS011;27057;51.438;-0.010;2023-07-02T10:12:33;19.30;;;5.38;;
41309;SDS011;27057;51.438;-0.010;2023-07-02T10:15:00;16.73;;;5.07;;
41309;SDS011;27057;51.438;-0.010;2023-07-02T10:20:07;16.85;;;4.30;;
41309;SDS011;27057;51.438;-0.010;2023-07-02T10:22:44;14.27;;;4.97;;
41309;SDS011;27057;51.438;-0.010;2023-07-02T10:25:30;13.00;;;4.55;;
41309;SDS011;27057;51.438;-0.010;2023-07-02T10:28:01;25.35;;;5.75;;
41309;SDS011;27057;51.438;-0.010;2023-07-02T10:30:32;22.30;;;5.90;;
41309;SDS011;27057;51.438;-0.010;2023-07-02T10:33:08;19.73;;;5.22;;
41309;SDS011;27057;51.438;-0.010;2023-07-02T10:35:40;19.05;;;5.22;;
41309;SDS011;27057;51.438;-0.010;2023-07-02T10:38:13;20.23;;;5.10;;
41309;SDS011;27057;51.438;-0.010;2023-07-02T10:40:43;20.50;;;5.07;;
41309;SDS011;27057;51.438;-0.010;2023-07-02T10:43:10;12.52;;;3.65;;
41309;SDS011;27057;51.438;-0.010;2023-07-02T10:45:38;20.13;;;5.43;;
41309;SDS011;27057;51.438;-0.010;2023-07-02T10:48:09;18.63;;;4.82;;
41309;SDS011;27057;51.438;-0.010;2023-07-02T10:50:37;20.02;;;4.95;;
41309;SDS011;27057;51.438;-0.010;2023-07-02T10:53:04;12.30;;;4.50;;
41309;SDS011;27057;51.438;-0.010;2023-07-02T10:55:32;19.45;;;4.65;;
41309;SDS011;27057;51.438;-0.010;2023-07-02T10:58:06;26.00;;;6.47;;
41309;SDS011;27057;51.438;-0.010;2023-07-02T11:00:44;15.30;;;4.43;;
41309;SDS011;27057;51.438;-0.010;2023-07-02T11:03:19;12.90;;;5.45;;
41309;SDS011;27057;51.438;-0.010;2023-07-02T11:05:48;21.75;;;5.20;;
41309;SDS011;27057;51.438;-0.010;2023-07-02T11:08:17;17.10;;;5.35;;
41309;SDS011;27057;51.438;-0.010;2023-07-02T11:11:09;10.70;;;3.45;;
41309;SDS011;27057;51.438;-0.010;2023-07-02T11:13:47;14.07;;;3.90;;
41309;SDS011;27057;51.438;-0.010;2023-07-02T11:16:23;13.40;;;4.60;;
41309;SDS011;27057;51.438;-0.010;2023-07-02T11:18:54;9.70;;;3.22;;
41309;SDS011;27057;51.438;-0.010;2023-07-02T11:21:33;13.23;;;4.07;;
41309;SDS011;27057;51.438;-0.010;2023-07-02T11:24:07;19.10;;;4.88;;
41309;SDS011;27057;51.438;-0.010;2023-07-02T11:26:39;16.50;;;4.50;;
41309;SDS011;27057;51.438;-0.010;2023-07-02T11:29:10;17.42;;;5.13;;
41309;SDS011;27057;51.438;-0.010;2023-07-02T11:31:38;18.20;;;4.80;;
41309;SDS011;27057;51.438;-0.010;2023-07-02T11:34:19;22.15;;;4.63;;
41309;SDS011;27057;51.438;-0.010;2023-07-02T11:36:51;19.40;;;3.95;;
41309;SDS011;27057;51.438;-0.010;2023-07-02T11:39:21;16.90;;;3.38;;
41309;SDS011;27057;51.438;-0.010;2023-07-02T11:41:50;15.68;;;3.33;;
41309;SDS011;27057;51.438;-0.010;2023-07-02T11:44:20;11.85;;;3.03;;
41309;SDS011;27057;51.438;-0.010;2023-07-02T11:46:47;11.70;;;3.55;;
41309;SDS011;27057;51.438;-0.010;2023-07-02T11:49:16;15.25;;;4.85;;
41309;SDS011;27057;51.438;-0.010;2023-07-02T11:51:44;10.05;;;3.08;;
41309;SDS011;27057;51.438;-0.010;2023-07-02T11:54:15;17.55;;;5.00;;
41309;SDS011;27057;51.438;-0.010;2023-07-02T11:56:43;14.40;;;5.40;;
41309;SDS011;27057;51.438;-0.010;2023-07-02T11:59:11;20.58;;;4.88;;
41309;SDS011;27057;51.438;-0.010;2023-07-02T12:01:38;22.10;;;9.30;;
41309;SDS011;27057;51.438;-0.010;2023-07-02T12:04:06;17.33;;;6.45;;
41309;SDS011;27057;51.438;-0.010;2023-07-02T12:06:39;16.13;;;3.88;;
41309;SDS011;27057;51.438;-0.010;2023-07-02T12:09:06;6.95;;;2.67;;
41309;SDS011;27057;51.438;-0.010;2023-07-02T12:11:33;8.10;;;3.70;;
41309;SDS011;27057;51.438;-0.010;2023-07-02T12:14:01;11.98;;;3.63;;
41309;SDS011;27057;51.438;-0.010;2023-07-02T12:16:28;13.68;;;4.00;;
41309;SDS011;27057;51.438;-0.010;2023-07-02T12:18:56;14.38;;;4.63;;
41309;SDS011;27057;51.438;-0.010;2023-07-02T12:21:23;16.40;;;4.28;;
41309;SDS011;27057;51.438;-0.010;2023-07-02T12:23:50;25.30;;;6.75;;
41309;SDS011;27057;51.438;-0.010;2023-07-02T12:26:18;22.40;;;6.30;;
41309;SDS011;27057;51.438;-0.010;2023-07-02T12:28:45;11.45;;;4.30;;
41309;SDS011;27057;51.438;-0.010;2023-07-02T12:31:13;17.88;;;3.53;;
41309;SDS011;27057;51.438;-0.010;2023-07-02T12:33:40;23.77;;;6.72;;
41309;SDS011;27057;51.438;-0.010;2023-07-02T12:36:08;18.55;;;4.85;;
41309;SDS011;27057;51.438;-0.010;2023-07-02T12:38:35;15.38;;;4.75;;
41309;SDS011;27057;51.438;-0.010;2023-07-02T12:41:03;9.43;;;4.05;;
41309;SDS011;27057;51.438;-0.010;2023-07-02T12:43:30;20.67;;;7.15;;
41309;SDS011;27057;51.438;-0.010;2023-07-02T12:45:58;17.42;;;5.88;;
41309;SDS011;27057;51.438;-0.010;2023-07-02T12:48:25;14.15;;;3.80;;
41309;SDS011;27057;51.438;-0.010;2023-07-02T12:50:53;12.75;;;3.55;;
41309;SDS011;27057;51.438;-0.010;2023-07-02T12:53:21;14.48;;;3.58;;
41309;SDS011;27057;51.438;-0.010;2023-07-02T12:55:49;11.77;;;4.00;;
41309;SDS011;27057;51.438;-0.010;2023-07-02T12:58:17;11.05;;;3.42;;
41309;SDS011;27057;51.438;-0.010;2023-07-02T13:00:45;15.50;;;5.00;;
41309;SDS011;27057;51.438;-0.010;2023-07-02T13:03:13;6.63;;;2.58;;
41309;SDS011;27057;51.438;-0.010;2023-07-02T13:05:44;15.73;;;4.47;;
41309;SDS011;27057;51.438;-0.010;2023-07-02T13:08:11;13.45;;;4.53;;
41309;SDS011;27057;51.438;-0.010;2023-07-02T13:10:38;14.15;;;4.47;;
41309;SDS011;27057;51.438;-0.010;2023-07-02T13:13:08;11.00;;;4.20;;
41309;SDS011;27057;51.438;-0.010;2023-07-02T13:15:48;8.73;;;3.25;;
41309;SDS011;27057;51.438;-0.010;2023-07-02T13:18:17;9.98;;;3.85;;
41309;SDS011;27057;51.438;-0.010;2023-07-02T13:20:44;13.10;;;3.95;;
41309;SDS011;27057;51.438;-0.010;2023-07-02T13:23:12;16.00;;;3.53;;
41309;SDS011;27057;51.438;-0.010;2023-07-02T13:25:39;9.52;;;4.03;;
41309;SDS011;27057;51.438;-0.010;2023-07-02T13:28:06;19.83;;;4.40;;
41309;SDS011;27057;51.438;-0.010;2023-07-02T13:30:34;15.13;;;4.05;;
41309;SDS011;27057;51.438;-0.010;2023-07-02T13:33:01;17.15;;;5.93;;
41309;SDS011;27057;51.438;-0.010;2023-07-02T13:35:29;17.38;;;4.82;;
41309;SDS011;27057;51.438;-0.010;2023-07-02T13:37:56;21.23;;;6.93;;
41309;SDS011;27057;51.438;-0.010;2023-07-02T13:40:26;11.50;;;3.50;;
41309;SDS011;27057;51.438;-0.010;2023-07-02T13:42:53;16.98;;;4.55;;
41309;SDS011;27057;51.438;-0.010;2023-07-02T13:45:21;9.63;;;3.42;;
41309;SDS011;27057;51.438;-0.010;2023-07-02T13:47:48;17.23;;;4.32;;
41309;SDS011;27057;51.438;-0.010;2023-07-02T13:50:16;15.75;;;3.97;;
41309;SDS011;27057;51.438;-0.010;2023-07-02T13:52:43;19.50;;;4.30;;
41309;SDS011;27057;51.438;-0.010;2023-07-02T13:55:13;19.33;;;5.18;;
41309;SDS011;27057;51.438;-0.010;2023-07-02T13:57:40;12.88;;;3.60;;
41309;SDS011;27057;51.438;-0.010;2023-07-02T14:00:08;13.43;;;3.78;;
41309;SDS011;27057;51.438;-0.010;2023-07-02T14:02:36;19.08;;;4.55;;
41309;SDS011;27057;51.438;-0.010;2023-07-02T14:05:04;16.95;;;4.72;;
41309;SDS011;27057;51.438;-0.010;2023-07-02T14:07:31;24.30;;;6.35;;
41309;SDS011;27057;51.438;-0.010;2023-07-02T14:09:59;21.17;;;7.53;;
41309;SDS011;27057;51.438;-0.010;2023-07-02T14:12:26;9.43;;;2.85;;
41309;SDS011;27057;51.438;-0.010;2023-07-02T14:14:54;15.73;;;5.28;;
41309;SDS011;27057;51.438;-0.010;2023-07-02T14:17:21;13.07;;;3.33;;
41309;SDS011;27057;51.438;-0.010;2023-07-02T14:19:52;16.15;;;3.45;;
41309;SDS011;27057;51.438;-0.010;2023-07-02T14:22:20;13.05;;;4.55;;
41309;SDS011;27057;51.438;-0.010;2023-07-02T14:24:47;16.20;;;3.33;;
41309;SDS011;27057;51.438;-0.010;2023-07-02T14:27:14;15.77;;;3.53;;
41309;SDS011;27057;51.438;-0.010;2023-07-02T14:29:42;17.05;;;4.10;;
41309;SDS011;27057;51.438;-0.010;2023-07-02T14:32:10;20.20;;;4.15;;
41309;SDS011;27057;51.438;-0.010;2023-07-02T14:34:37;18.83;;;5.40;;
41309;SDS011;27057;51.438;-0.010;2023-07-02T14:37:05;14.38;;;3.72;;
41309;SDS011;27057;51.438;-0.010;2023-07-02T14:39:32;20.77;;;3.65;;
41309;SDS011;27057;51.438;-0.010;2023-07-02T14:42:00;27.95;;;6.03;;
41309;SDS011;27057;51.438;-0.010;2023-07-02T14:44:27;21.70;;;5.95;;
41309;SDS011;27057;51.438;-0.010;2023-07-02T14:46:54;9.00;;;2.50;;